Time;durP1;ratioP1;P1;durP2;ratioP2;P2;SDS_P1;SDS_P2;PMS_P1;PMS_P2;Temp;Humidity;BMP_temperature;BMP_pressure;BME280_temperature;BME280_humidity;BME280_pressure;Samples;Min_cycle;Max_cycle;Signal;HPM_P1;HPM_P2
2022/07/02 00:02:25;;;;;;;7.95;2.30;;;;;;;;;;4840258;29;20173;-73
2022/07/02 00:04:58;;;;;;;6.43;1.92;;;;;;;;;;4838768;29;20465;-73
2022/07/02 00:07:25;;;;;;;4.07;1.90;;;;;;;;;;4839282;29;20057;-74
2022/07/02 00:09:53;;;;;;;3.55;1.73;;;;;;;;;;4841233;29;20026;-73
2022/07/02 00:12:18;;;;;;;5.35;2.30;;;;;;;;;;4839863;29;20035;-75
2022/07/02 00:14:44;;;;;;;3.83;2.03;;;;;;;;;;4836848;29;20110;-74
2022/07/02 00:17:10;;;;;;;2.33;1.52;;;;;;;;;;4836106;29;20152;-75
2022/07/02 00:19:36;;;;;;;3.08;1.73;;;;;;;;;;4833981;29;20122;-76
2022/07/02 00:22:02;;;;;;;3.25;1.70;;;;;;;;;;4835095;29;20566;-75
2022/07/02 00:24:27;;;;;;;3.78;1.92;;;;;;;;;;4821313;29;20128;-74
2022/07/02 00:26:57;;;;;;;3.05;1.65;;;;;;;;;;4838945;29;20109;-74
2022/07/02 00:29:44;;;;;;;3.80;1.70;;;;;;;;;;4838977;29;20049;-74
2022/07/02 00:32:10;;;;;;;2.22;1.60;;;;;;;;;;4839700;29;20141;-72
2022/07/02 00:34:38;;;;;;;2.72;1.70;;;;;;;;;;4843650;29;20564;-75
2022/07/02 00:37:06;;;;;;;2.08;1.63;;;;;;;;;;4841943;29;20042;-74
2022/07/02 00:39:31;;;;;;;5.72;1.70;;;;;;;;;;4844323;29;20090;-74
2022/07/02 00:41:58;;;;;;;1.80;1.55;;;;;;;;;;4842682;29;20405;-75
2022/07/02 00:44:25;;;;;;;4.82;1.80;;;;;;;;;;4842680;29;20562;-74
2022/07/02 00:46:52;;;;;;;2.63;1.45;;;;;;;;;;4841611;29;20049;-74
2022/07/02 00:49:18;;;;;;;5.07;1.83;;;;;;;;;;4847125;29;20050;-74
2022/07/02 00:51:43;;;;;;;2.47;1.90;;;;;;;;;;4841174;29;20038;-74
2022/07/02 00:54:08;;;;;;;3.50;1.83;;;;;;;;;;4829966;29;20038;-74
2022/07/02 00:56:34;;;;;;;3.40;2.10;;;;;;;;;;4840550;29;20588;-74
2022/07/02 00:59:03;;;;;;;4.20;2.67;;;;;;;;;;4840045;29;20181;-75
2022/07/02 01:01:28;;;;;;;3.25;2.00;;;;;;;;;;4830978;29;20079;-74
2022/07/02 01:03:55;;;;;;;4.20;2.38;;;;;;;;;;4836818;29;20034;-74
2022/07/02 01:06:23;;;;;;;3.53;2.50;;;;;;;;;;4830810;29;20070;-74
2022/07/02 01:11:35;;;;;;;6.38;2.58;;;;;;;;;;4834509;29;20044;-76
2022/07/02 01:14:02;;;;;;;3.03;2.08;;;;;;;;;;4839442;29;20124;-75
2022/07/02 01:16:28;;;;;;;3.50;2.08;;;;;;;;;;4834771;29;20144;-74
2022/07/02 01:18:53;;;;;;;2.25;1.90;;;;;;;;;;4837161;29;20051;-73
2022/07/02 01:21:20;;;;;;;2.35;1.95;;;;;;;;;;4834053;29;20518;-73
2022/07/02 01:23:45;;;;;;;4.05;2.25;;;;;;;;;;4823615;29;20058;-73
2022/07/02 01:26:10;;;;;;;3.05;2.00;;;;;;;;;;4830363;29;20050;-76
2022/07/02 01:28:36;;;;;;;3.83;1.90;;;;;;;;;;4835223;29;20054;-75
2022/07/02 01:31:02;;;;;;;3.55;1.65;;;;;;;;;;4837188;29;20038;-75
2022/07/02 01:33:27;;;;;;;3.10;1.90;;;;;;;;;;4838262;29;20034;-74
2022/07/02 01:35:52;;;;;;;1.95;1.73;;;;;;;;;;4839753;29;20499;-76
2022/07/02 01:38:18;;;;;;;3.15;1.50;;;;;;;;;;4846916;29;20037;-75
2022/07/02 01:40:43;;;;;;;2.65;1.50;;;;;;;;;;4838016;29;20058;-76
2022/07/02 01:43:09;;;;;;;3.35;1.90;;;;;;;;;;4839016;29;20390;-75
2022/07/02 01:45:34;;;;;;;2.92;1.58;;;;;;;;;;4844973;29;20026;-75
2022/07/02 01:47:59;;;;;;;2.08;1.58;;;;;;;;;;4821047;29;20517;-74
2022/07/02 01:50:25;;;;;;;3.08;1.90;;;;;;;;;;4839865;29;20057;-74
2022/07/02 01:52:51;;;;;;;3.92;1.70;;;;;;;;;;4837930;29;20551;-74
2022/07/02 01:55:17;;;;;;;2.85;1.27;;;;;;;;;;4837926;29;20034;-74
2022/07/02 01:57:42;;;;;;;3.38;1.40;;;;;;;;;;4838361;29;20036;-75
2022/07/02 02:00:11;;;;;;;3.03;1.65;;;;;;;;;;4827921;29;20030;-76
2022/07/02 02:02:36;;;;;;;1.90;1.30;;;;;;;;;;4843222;29;20105;-74
2022/07/02 02:05:02;;;;;;;3.72;1.50;;;;;;;;;;4839387;29;20524;-72
2022/07/02 02:07:28;;;;;;;3.05;1.70;;;;;;;;;;4838962;29;20073;-75
2022/07/02 02:09:54;;;;;;;1.48;1.20;;;;;;;;;;4841137;29;20455;-74
2022/07/02 02:12:20;;;;;;;2.13;1.42;;;;;;;;;;4842210;29;20129;-76
2022/07/02 02:14:45;;;;;;;2.20;1.27;;;;;;;;;;4843131;29;20053;-75
2022/07/02 02:17:11;;;;;;;2.15;1.48;;;;;;;;;;4841632;29;20058;-76
2022/07/02 02:19:36;;;;;;;4.15;1.40;;;;;;;;;;4843471;29;20073;-76
2022/07/02 02:22:01;;;;;;;4.00;1.40;;;;;;;;;;4843893;29;20046;-77
2022/07/02 02:24:27;;;;;;;1.65;1.50;;;;;;;;;;4841805;29;20052;-76
2022/07/02 02:26:52;;;;;;;1.95;1.50;;;;;;;;;;4840078;29;20042;-76
2022/07/02 02:29:18;;;;;;;3.47;1.45;;;;;;;;;;4838503;29;20038;-76
2022/07/02 02:31:43;;;;;;;5.50;1.42;;;;;;;;;;4842578;29;20045;-76
2022/07/02 02:34:10;;;;;;;2.40;1.40;;;;;;;;;;4826288;29;20038;-75
2022/07/02 02:36:35;;;;;;;3.22;1.75;;;;;;;;;;4847764;29;20136;-75
2022/07/02 02:39:00;;;;;;;3.30;1.55;;;;;;;;;;4826611;29;20073;-76
2022/07/02 02:41:26;;;;;;;2.15;1.88;;;;;;;;;;4843836;29;20049;-77
2022/07/02 02:43:51;;;;;;;2.50;2.00;;;;;;;;;;4844896;29;20407;-77
2022/07/02 02:46:17;;;;;;;3.83;2.28;;;;;;;;;;4847978;29;20053;-77
2022/07/02 02:48:42;;;;;;;4.57;2.38;;;;;;;;;;4847949;29;20044;-76
2022/07/02 02:51:10;;;;;;;4.22;2.08;;;;;;;;;;4842368;29;20166;-76
2022/07/02 02:53:35;;;;;;;2.97;1.95;;;;;;;;;;4843627;29;20046;-76
2022/07/02 02:56:02;;;;;;;4.00;1.90;;;;;;;;;;4844352;29;20045;-76
2022/07/02 02:58:28;;;;;;;5.63;2.05;;;;;;;;;;4845805;29;20046;-77
2022/07/02 03:00:54;;;;;;;2.63;2.17;;;;;;;;;;4844838;29;20038;-76
2022/07/02 03:03:20;;;;;;;5.38;2.15;;;;;;;;;;4837522;29;20038;-77
2022/07/02 03:05:45;;;;;;;3.38;2.25;;;;;;;;;;4838355;29;20056;-76
2022/07/02 03:08:11;;;;;;;3.90;2.10;;;;;;;;;;4837345;29;20038;-76
2022/07/02 03:10:37;;;;;;;4.70;2.15;;;;;;;;;;4840021;29;20764;-76
2022/07/02 03:13:03;;;;;;;3.15;2.17;;;;;;;;;;4837020;29;20040;-76
2022/07/02 03:15:28;;;;;;;3.58;2.15;;;;;;;;;;4822768;29;20018;-77
2022/07/02 03:17:54;;;;;;;4.43;2.55;;;;;;;;;;4840612;29;20576;-78
2022/07/02 03:20:19;;;;;;;3.40;2.30;;;;;;;;;;4836935;29;20075;-76
2022/07/02 03:22:45;;;;;;;5.68;2.30;;;;;;;;;;4823045;29;20519;-76
2022/07/02 03:25:11;;;;;;;4.80;2.45;;;;;;;;;;4841452;29;20041;-76
2022/07/02 03:27:37;;;;;;;2.78;1.80;;;;;;;;;;4841642;29;20034;-74
2022/07/02 03:30:03;;;;;;;2.25;1.98;;;;;;;;;;4826902;29;20414;-77
2022/07/02 03:32:29;;;;;;;4.05;2.00;;;;;;;;;;4835280;29;20080;-76
2022/07/02 03:34:56;;;;;;;2.60;1.65;;;;;;;;;;4843003;29;20045;-76
2022/07/02 03:37:25;;;;;;;4.18;2.08;;;;;;;;;;4840748;29;20042;-77
2022/07/02 03:39:51;;;;;;;2.95;1.90;;;;;;;;;;4838753;29;20033;-77
2022/07/02 03:42:16;;;;;;;2.70;1.50;;;;;;;;;;4842021;29;20803;-75
2022/07/02 03:44:42;;;;;;;3.55;1.42;;;;;;;;;;4841429;29;20042;-79
2022/07/02 03:47:07;;;;;;;2.85;1.90;;;;;;;;;;4839828;29;20042;-75
2022/07/02 03:49:32;;;;;;;6.53;1.63;;;;;;;;;;4823955;29;20095;-78
2022/07/02 03:51:58;;;;;;;3.15;1.60;;;;;;;;;;4839627;29;20046;-76
2022/07/02 03:54:23;;;;;;;3.80;1.80;;;;;;;;;;4838193;29;20464;-77
2022/07/02 03:56:49;;;;;;;2.30;1.60;;;;;;;;;;4840072;29;20038;-77
2022/07/02 03:59:14;;;;;;;2.30;1.50;;;;;;;;;;4840694;29;20507;-77
2022/07/02 04:01:39;;;;;;;1.98;1.33;;;;;;;;;;4837258;29;20043;-75
2022/07/02 04:04:05;;;;;;;2.15;1.58;;;;;;;;;;4843328;29;20309;-75
2022/07/02 04:06:30;;;;;;;3.42;1.50;;;;;;;;;;4840343;29;20136;-78
2022/07/02 04:08:56;;;;;;;2.38;1.30;;;;;;;;;;4842305;29;20046;-74
2022/07/02 04:11:21;;;;;;;5.15;2.00;;;;;;;;;;4837330;29;20037;-76
2022/07/02 04:13:46;;;;;;;8.73;2.55;;;;;;;;;;4840193;29;20330;-78
2022/07/02 04:16:12;;;;;;;5.53;2.33;;;;;;;;;;4837766;29;20030;-77
2022/07/02 04:18:37;;;;;;;2.95;1.35;;;;;;;;;;4839395;29;20030;-77
2022/07/02 04:21:03;;;;;;;3.20;1.20;;;;;;;;;;4842226;29;20489;-75
2022/07/02 04:23:28;;;;;;;1.42;1.20;;;;;;;;;;4822864;29;20402;-75
2022/07/02 04:25:53;;;;;;;2.05;1.20;;;;;;;;;;4838579;29;20034;-76
2022/07/02 04:28:19;;;;;;;3.00;1.23;;;;;;;;;;4837684;29;20444;-78
2022/07/02 04:30:44;;;;;;;1.60;1.05;;;;;;;;;;4843363;29;20061;-76
2022/07/02 04:33:10;;;;;;;2.05;1.30;;;;;;;;;;4839337;29;20038;-77
2022/07/02 04:35:35;;;;;;;9.35;1.30;;;;;;;;;;4832247;29;20037;-75
2022/07/02 04:38:01;;;;;;;2.97;1.20;;;;;;;;;;4842846;29;20148;-78
2022/07/02 04:40:26;;;;;;;4.90;1.60;;;;;;;;;;4844370;29;20044;-78
2022/07/02 04:42:52;;;;;;;4.60;1.40;;;;;;;;;;4826170;29;20282;-77
2022/07/02 04:45:17;;;;;;;1.70;1.20;;;;;;;;;;4843348;29;20042;-76
2022/07/02 04:47:42;;;;;;;3.40;1.20;;;;;;;;;;4829159;29;20048;-77
2022/07/02 04:50:08;;;;;;;2.50;1.17;;;;;;;;;;4842586;29;20102;-76
2022/07/02 04:52:34;;;;;;;3.72;1.10;;;;;;;;;;4828423;29;20034;-77
2022/07/02 04:54:59;;;;;;;1.95;1.20;;;;;;;;;;4841406;29;20037;-77
2022/07/02 04:57:25;;;;;;;3.10;1.20;;;;;;;;;;4846404;29;20037;-77
2022/07/02 04:59:50;;;;;;;3.17;0.93;;;;;;;;;;4844250;29;20039;-77
2022/07/02 05:02:15;;;;;;;2.33;1.02;;;;;;;;;;4842011;29;20034;-76
2022/07/02 05:04:41;;;;;;;7.63;1.05;;;;;;;;;;4837156;29;20046;-76
2022/07/02 05:07:06;;;;;;;2.78;1.00;;;;;;;;;;4842525;29;20498;-76
2022/07/02 05:09:32;;;;;;;3.13;1.00;;;;;;;;;;4836578;29;20162;-76
2022/07/02 05:11:58;;;;;;;5.15;1.10;;;;;;;;;;4834816;29;20523;-76
2022/07/02 05:14:23;;;;;;;3.28;0.80;;;;;;;;;;4836756;29;20522;-76
2022/07/02 05:16:49;;;;;;;2.92;1.25;;;;;;;;;;4839737;29;20084;-77
2022/07/02 05:19:15;;;;;;;2.47;1.02;;;;;;;;;;4840845;29;20094;-77
2022/07/02 05:21:42;;;;;;;3.22;0.80;;;;;;;;;;4841731;29;20037;-77
2022/07/02 05:24:07;;;;;;;3.45;0.80;;;;;;;;;;4841647;29;20052;-78
2022/07/02 05:26:33;;;;;;;1.48;1.00;;;;;;;;;;4839562;29;20033;-77
2022/07/02 05:28:58;;;;;;;5.32;0.90;;;;;;;;;;4839413;29;20144;-77
2022/07/02 05:31:24;;;;;;;2.30;1.08;;;;;;;;;;4836802;29;20053;-76
2022/07/02 05:33:49;;;;;;;2.05;1.10;;;;;;;;;;4838741;29;20511;-77
2022/07/02 05:36:14;;;;;;;1.63;0.90;;;;;;;;;;4843801;29;20860;-77
2022/07/02 05:38:40;;;;;;;2.05;1.30;;;;;;;;;;4836070;29;20124;-78
2022/07/02 05:41:06;;;;;;;4.28;0.90;;;;;;;;;;4834750;29;20035;-76
2022/07/02 05:43:32;;;;;;;2.05;0.90;;;;;;;;;;4840542;29;20038;-76
2022/07/02 05:45:57;;;;;;;2.03;1.20;;;;;;;;;;4839358;29;20030;-76
2022/07/02 05:48:23;;;;;;;5.93;1.77;;;;;;;;;;4835212;29;20046;-78
2022/07/02 05:50:48;;;;;;;4.68;1.25;;;;;;;;;;4836660;29;20513;-76
2022/07/02 05:53:14;;;;;;;4.18;1.30;;;;;;;;;;4837756;29;20508;-77
2022/07/02 05:55:39;;;;;;;4.15;1.42;;;;;;;;;;4835575;29;20034;-78
2022/07/02 05:58:05;;;;;;;3.00;1.20;;;;;;;;;;4835460;29;20034;-75
2022/07/02 06:00:30;;;;;;;2.75;1.50;;;;;;;;;;4835827;29;20030;-76
2022/07/02 06:02:55;;;;;;;4.28;1.48;;;;;;;;;;4834501;29;20042;-77
2022/07/02 06:08:05;;;;;;;4.10;1.75;;;;;;;;;;4835887;29;20118;-76
2022/07/02 06:10:30;;;;;;;5.63;1.90;;;;;;;;;;4844879;29;20488;-77
2022/07/02 06:12:56;;;;;;;2.95;1.65;;;;;;;;;;4842485;29;20043;-77
2022/07/02 06:15:21;;;;;;;4.70;1.85;;;;;;;;;;4841375;29;20122;-77
2022/07/02 06:17:47;;;;;;;6.30;1.58;;;;;;;;;;4838916;29;20046;-77
2022/07/02 06:20:13;;;;;;;3.17;1.60;;;;;;;;;;4841126;29;20379;-77
2022/07/02 06:22:39;;;;;;;3.72;1.35;;;;;;;;;;4844302;29;20045;-76
2022/07/02 06:25:06;;;;;;;6.72;1.52;;;;;;;;;;4840839;29;20030;-74
2022/07/02 06:27:34;;;;;;;7.97;2.22;;;;;;;;;;4841916;29;20040;-75
2022/07/02 06:30:00;;;;;;;9.63;2.35;;;;;;;;;;4841455;29;20040;-75
2022/07/02 06:32:26;;;;;;;6.35;2.78;;;;;;;;;;4849912;29;20562;-76
2022/07/02 06:34:51;;;;;;;7.85;2.45;;;;;;;;;;4848674;29;20069;-74
2022/07/02 06:37:17;;;;;;;10.82;2.90;;;;;;;;;;4828082;29;20128;-76
2022/07/02 06:39:42;;;;;;;11.52;2.60;;;;;;;;;;4845714;29;20108;-75
2022/07/02 06:42:20;;;;;;;4.97;2.25;;;;;;;;;;4848509;29;20053;-73
2022/07/02 06:44:47;;;;;;;14.77;2.95;;;;;;;;;;4845453;29;20038;-76
2022/07/02 06:47:13;;;;;;;5.80;2.33;;;;;;;;;;4843408;29;20121;-76
2022/07/02 06:49:39;;;;;;;4.88;2.25;;;;;;;;;;4844869;29;20446;-77
2022/07/02 06:52:05;;;;;;;5.15;2.50;;;;;;;;;;4844564;29;20026;-75
2022/07/02 06:54:31;;;;;;;9.77;2.58;;;;;;;;;;4843537;29;20038;-77
2022/07/02 06:56:57;;;;;;;7.30;2.85;;;;;;;;;;4831876;29;20406;-76
2022/07/02 06:59:22;;;;;;;6.88;2.40;;;;;;;;;;4840705;29;20042;-76
2022/07/02 07:01:47;;;;;;;7.28;2.85;;;;;;;;;;4843310;29;20038;-77
2022/07/02 07:04:13;;;;;;;6.78;2.65;;;;;;;;;;4838587;29;20053;-76
2022/07/02 07:06:39;;;;;;;9.48;2.58;;;;;;;;;;4849645;29;20033;-76
2022/07/02 07:09:05;;;;;;;3.70;2.35;;;;;;;;;;4838676;29;20483;-76
2022/07/02 07:11:30;;;;;;;6.72;2.80;;;;;;;;;;4844190;29;20053;-76
2022/07/02 07:13:55;;;;;;;5.40;2.75;;;;;;;;;;4840906;29;20514;-75
2022/07/02 07:16:21;;;;;;;5.60;2.15;;;;;;;;;;4846387;29;20440;-75
2022/07/02 07:18:50;;;;;;;8.65;2.45;;;;;;;;;;4836773;29;20058;-77
2022/07/02 07:21:15;;;;;;;7.75;2.75;;;;;;;;;;4845713;29;20117;-74
2022/07/02 07:23:40;;;;;;;5.03;2.85;;;;;;;;;;4847495;29;20533;-76
2022/07/02 07:26:06;;;;;;;7.32;3.33;;;;;;;;;;4841381;29;20094;-76
2022/07/02 07:28:31;;;;;;;5.13;2.72;;;;;;;;;;4824934;29;20517;-78
2022/07/02 07:30:56;;;;;;;5.20;2.60;;;;;;;;;;4841471;29;20025;-76
2022/07/02 07:33:22;;;;;;;7.07;2.88;;;;;;;;;;4840808;29;20521;-75
2022/07/02 07:35:47;;;;;;;6.50;2.90;;;;;;;;;;4841642;29;20093;-77
2022/07/02 07:38:13;;;;;;;7.88;2.53;;;;;;;;;;4838984;29;20577;-77
2022/07/02 07:40:38;;;;;;;9.85;2.40;;;;;;;;;;4824454;29;20085;-76
2022/07/02 07:43:04;;;;;;;4.95;2.72;;;;;;;;;;4844250;29;20082;-77
2022/07/02 07:45:30;;;;;;;6.05;2.70;;;;;;;;;;4839171;29;20363;-76
2022/07/02 07:47:56;;;;;;;3.22;2.15;;;;;;;;;;4837217;29;20144;-76
2022/07/02 07:50:22;;;;;;;5.72;2.13;;;;;;;;;;4841810;29;20053;-75
2022/07/02 07:52:47;;;;;;;3.83;1.83;;;;;;;;;;4842614;29;20038;-76
2022/07/02 07:55:13;;;;;;;10.23;2.22;;;;;;;;;;4840183;29;20042;-77
2022/07/02 07:57:38;;;;;;;2.95;1.80;;;;;;;;;;4838506;29;20044;-74
2022/07/02 08:00:05;;;;;;;11.15;2.25;;;;;;;;;;4820745;29;20030;-77
2022/07/02 08:02:30;;;;;;;4.05;2.03;;;;;;;;;;4842479;29;20066;-75
2022/07/02 08:04:56;;;;;;;3.05;1.60;;;;;;;;;;4840572;29;20054;-75
2022/07/02 08:07:21;;;;;;;3.53;1.20;;;;;;;;;;4842706;29;20062;-76
2022/07/02 08:09:52;;;;;;;2.60;1.40;;;;;;;;;;4840976;29;20046;-76
2022/07/02 08:12:21;;;;;;;3.03;2.10;;;;;;;;;;4839449;29;20065;-76
2022/07/02 08:14:47;;;;;;;2.97;1.98;;;;;;;;;;4839478;29;20059;-76
2022/07/02 08:17:12;;;;;;;3.85;2.00;;;;;;;;;;4838739;29;20037;-76
2022/07/02 08:19:38;;;;;;;7.93;1.92;;;;;;;;;;4841403;29;20041;-78
2022/07/02 08:22:03;;;;;;;3.85;1.73;;;;;;;;;;4836752;29;20062;-77
2022/07/02 08:24:29;;;;;;;3.63;1.83;;;;;;;;;;4838940;29;20042;-77
2022/07/02 08:26:54;;;;;;;3.05;1.50;;;;;;;;;;4838093;29;20051;-75
2022/07/02 08:29:20;;;;;;;7.07;2.00;;;;;;;;;;4838165;29;20130;-78
2022/07/02 08:31:45;;;;;;;2.40;1.30;;;;;;;;;;4845228;29;20045;-77
2022/07/02 08:34:11;;;;;;;5.20;1.90;;;;;;;;;;4843791;29;20036;-76
2022/07/02 08:36:36;;;;;;;2.88;1.70;;;;;;;;;;4845063;29;20045;-76
2022/07/02 08:39:02;;;;;;;3.53;1.60;;;;;;;;;;4841827;29;20065;-76
2022/07/02 08:41:28;;;;;;;3.03;1.67;;;;;;;;;;4851496;29;20132;-77
2022/07/02 08:43:56;;;;;;;4.18;1.85;;;;;;;;;;4844012;29;21178;-77
2022/07/02 08:46:24;;;;;;;4.80;1.90;;;;;;;;;;4842099;29;20041;-76
2022/07/02 08:48:50;;;;;;;4.80;1.52;;;;;;;;;;4844568;29;20030;-75
2022/07/02 08:51:19;;;;;;;3.10;1.02;;;;;;;;;;4844631;29;20066;-75
2022/07/02 08:53:46;;;;;;;2.90;1.17;;;;;;;;;;4847542;29;20057;-76
2022/07/02 08:56:13;;;;;;;2.35;1.20;;;;;;;;;;4843896;29;20042;-76
2022/07/02 08:58:39;;;;;;;1.95;1.10;;;;;;;;;;4838315;29;20046;-76
2022/07/02 09:01:06;;;;;;;2.00;1.10;;;;;;;;;;4840154;29;20636;-75
2022/07/02 09:03:32;;;;;;;5.03;1.20;;;;;;;;;;4839530;29;20032;-78
2022/07/02 09:05:57;;;;;;;1.70;1.40;;;;;;;;;;4825637;29;20041;-74
2022/07/02 09:08:23;;;;;;;1.60;0.70;;;;;;;;;;4840316;29;20134;-77
2022/07/02 09:10:51;;;;;;;1.08;0.57;;;;;;;;;;4838327;29;20046;-77
2022/07/02 09:13:17;;;;;;;1.38;0.70;;;;;;;;;;4838652;29;20102;-76
2022/07/02 09:15:45;;;;;;;3.25;0.90;;;;;;;;;;4829102;29;20511;-76
2022/07/02 09:18:11;;;;;;;1.70;0.88;;;;;;;;;;4839857;29;20585;-76
2022/07/02 09:20:37;;;;;;;4.35;1.15;;;;;;;;;;4843429;29;20048;-76
2022/07/02 09:23:19;;;;;;;3.63;0.90;;;;;;;;;;4844869;29;20034;-75
2022/07/02 09:25:45;;;;;;;2.30;0.70;;;;;;;;;;4843656;29;20034;-73
2022/07/02 09:28:14;;;;;;;2.75;0.60;;;;;;;;;;4844011;29;20483;-75
2022/07/02 09:30:39;;;;;;;2.15;0.80;;;;;;;;;;4841910;29;20380;-75
2022/07/02 09:33:35;;;;;;;1.52;0.77;;;;;;;;;;4844996;29;20045;-75
2022/07/02 09:36:10;;;;;;;2.30;0.80;;;;;;;;;;4839730;29;20510;-75
2022/07/02 09:38:44;;;;;;;0.65;0.47;;;;;;;;;;4836604;29;20038;-75
2022/07/02 09:41:14;;;;;;;2.17;0.75;;;;;;;;;;4840935;29;20537;-75
2022/07/02 09:43:40;;;;;;;2.38;0.60;;;;;;;;;;4839898;29;20507;-73
2022/07/02 09:46:17;;;;;;;2.58;0.60;;;;;;;;;;4842632;29;20406;-77
2022/07/02 09:48:43;;;;;;;1.98;0.60;;;;;;;;;;4842577;29;20034;-77
2022/07/02 09:51:09;;;;;;;2.95;0.80;;;;;;;;;;4843783;29;20094;-75
2022/07/02 09:53:34;;;;;;;2.83;0.55;;;;;;;;;;4840316;29;20065;-75
2022/07/02 09:56:04;;;;;;;1.13;0.60;;;;;;;;;;4843561;29;20095;-75
2022/07/02 09:58:30;;;;;;;1.88;0.60;;;;;;;;;;4843381;29;20049;-76
2022/07/02 10:01:01;;;;;;;2.72;1.33;;;;;;;;;;4841863;29;20030;-75
2022/07/02 10:03:27;;;;;;;1.55;0.98;;;;;;;;;;4839387;29;20049;-77
2022/07/02 10:05:54;;;;;;;1.13;0.70;;;;;;;;;;4822190;29;20529;-76
2022/07/02 10:08:20;;;;;;;1.48;0.50;;;;;;;;;;4841696;29;20055;-75
2022/07/02 10:10:46;;;;;;;0.75;0.50;;;;;;;;;;4846154;29;20102;-77
2022/07/02 10:13:13;;;;;;;4.07;0.70;;;;;;;;;;4840117;29;20038;-75
2022/07/02 10:15:54;;;;;;;1.83;0.70;;;;;;;;;;4840197;29;20471;-74
2022/07/02 10:18:23;;;;;;;7.25;0.80;;;;;;;;;;4841097;29;20046;-76
2022/07/02 10:20:49;;;;;;;0.77;0.40;;;;;;;;;;4836164;29;20057;-76
2022/07/02 10:23:15;;;;;;;1.20;0.52;;;;;;;;;;4839759;29;20121;-76
2022/07/02 10:25:41;;;;;;;1.05;0.40;;;;;;;;;;4838204;29;20081;-73
2022/07/02 10:28:07;;;;;;;0.90;0.50;;;;;;;;;;4837462;29;20038;-76
2022/07/02 10:30:32;;;;;;;1.00;0.52;;;;;;;;;;4839757;29;20464;-76
2022/07/02 10:33:32;;;;;;;2.92;0.70;;;;;;;;;;4846444;29;20124;-76
2022/07/02 10:35:59;;;;;;;1.05;0.60;;;;;;;;;;4847642;29;20544;-77
2022/07/02 10:38:38;;;;;;;1.42;0.80;;;;;;;;;;4841554;29;20109;-76
2022/07/02 10:41:04;;;;;;;3.42;0.57;;;;;;;;;;4828128;29;20045;-76
2022/07/02 10:43:35;;;;;;;2.33;0.60;;;;;;;;;;4841612;29;20046;-75
2022/07/02 10:46:08;;;;;;;1.50;0.70;;;;;;;;;;4825882;29;20084;-75
2022/07/02 10:48:46;;;;;;;1.33;0.63;;;;;;;;;;4841493;29;20101;-76
2022/07/02 10:51:18;;;;;;;1.10;0.60;;;;;;;;;;4841388;29;20069;-76
2022/07/02 10:53:52;;;;;;;1.33;0.50;;;;;;;;;;4845109;29;20131;-76
2022/07/02 10:56:18;;;;;;;0.50;0.50;;;;;;;;;;4845186;29;20037;-76
2022/07/02 10:58:43;;;;;;;1.40;0.60;;;;;;;;;;4849893;29;20049;-75
2022/07/02 11:01:22;;;;;;;0.85;0.60;;;;;;;;;;4824843;29;20026;-75
2022/07/02 11:03:59;;;;;;;1.50;0.50;;;;;;;;;;4839145;29;20486;-74
2022/07/02 11:06:26;;;;;;;1.13;0.43;;;;;;;;;;4821615;29;20045;-76
2022/07/02 11:08:55;;;;;;;0.98;0.47;;;;;;;;;;4838196;29;20495;-76
2022/07/02 11:11:22;;;;;;;1.48;0.47;;;;;;;;;;4839458;29;20046;-73
2022/07/02 11:13:54;;;;;;;2.88;0.60;;;;;;;;;;4838290;29;20069;-75
2022/07/02 11:16:34;;;;;;;1.05;0.63;;;;;;;;;;4844357;29;20052;-73
2022/07/02 11:18:59;;;;;;;0.75;0.40;;;;;;;;;;4834970;29;20399;-75
2022/07/02 11:21:28;;;;;;;1.73;0.50;;;;;;;;;;4836944;29;20039;-73
2022/07/02 11:23:53;;;;;;;1.90;0.40;;;;;;;;;;4836851;29;20034;-75
2022/07/02 11:26:22;;;;;;;1.05;0.60;;;;;;;;;;4840264;29;20041;-76
2022/07/02 11:28:48;;;;;;;2.15;0.52;;;;;;;;;;4820976;29;20053;-73
2022/07/02 11:31:14;;;;;;;0.98;0.40;;;;;;;;;;4837466;29;20043;-75
2022/07/02 11:33:51;;;;;;;0.63;0.40;;;;;;;;;;4833704;29;20061;-74
2022/07/02 11:36:17;;;;;;;1.35;0.57;;;;;;;;;;4839976;29;20040;-75
2022/07/02 11:38:45;;;;;;;0.68;0.50;;;;;;;;;;4818694;29;20060;-75
2022/07/02 11:41:29;;;;;;;2.50;0.40;;;;;;;;;;4835086;29;20530;-73
2022/07/02 11:43:57;;;;;;;1.48;0.60;;;;;;;;;;4835590;29;20105;-73
2022/07/02 11:46:24;;;;;;;2.80;0.60;;;;;;;;;;4839283;29;20052;-73
2022/07/02 11:48:51;;;;;;;1.65;0.63;;;;;;;;;;4837820;29;20029;-76
2022/07/02 11:51:19;;;;;;;1.02;0.50;;;;;;;;;;4836288;29;20495;-74
2022/07/02 11:53:55;;;;;;;1.23;0.80;;;;;;;;;;4834876;29;20053;-75
2022/07/02 11:56:21;;;;;;;2.47;0.55;;;;;;;;;;4835887;29;20038;-75
2022/07/02 11:58:48;;;;;;;3.40;2.25;;;;;;;;;;4835148;29;20164;-73
2022/07/02 12:01:28;;;;;;;3.15;0.65;;;;;;;;;;4840590;29;20112;-76
2022/07/02 12:03:59;;;;;;;1.92;0.60;;;;;;;;;;4824258;29;20033;-76
2022/07/02 12:06:27;;;;;;;2.60;0.60;;;;;;;;;;4838450;29;20090;-76
2022/07/02 12:08:54;;;;;;;0.52;0.47;;;;;;;;;;4820649;29;20045;-76
2022/07/02 12:11:22;;;;;;;3.65;1.45;;;;;;;;;;4845542;29;20083;-74
2022/07/02 12:13:48;;;;;;;2.80;0.93;;;;;;;;;;4841844;29;20062;-77
2022/07/02 12:16:16;;;;;;;1.83;1.17;;;;;;;;;;4841624;29;20037;-76
2022/07/02 12:18:42;;;;;;;1.40;0.80;;;;;;;;;;4823381;29;20037;-76
2022/07/02 12:21:13;;;;;;;3.08;0.70;;;;;;;;;;4835886;29;20698;-76
2022/07/02 12:23:49;;;;;;;2.20;0.90;;;;;;;;;;4830745;29;20114;-76
2022/07/02 12:26:20;;;;;;;1.15;0.80;;;;;;;;;;4833400;29;20038;-73
2022/07/02 12:32:04;;;;;;;0.90;0.52;;;;;;;;;;4836733;29;20073;-74
2022/07/02 12:34:40;;;;;;;3.75;0.70;;;;;;;;;;4843565;29;20128;-76
2022/07/02 12:37:06;;;;;;;1.15;0.57;;;;;;;;;;4849784;29;20040;-76
2022/07/02 12:39:41;;;;;;;0.75;0.63;;;;;;;;;;4845874;29;20021;-76
2022/07/02 12:42:13;;;;;;;1.20;0.88;;;;;;;;;;4841917;29;20095;-75
2022/07/02 12:44:49;;;;;;;0.98;0.50;;;;;;;;;;4845616;29;20533;-76
2022/07/02 12:47:28;;;;;;;0.88;0.70;;;;;;;;;;4848098;29;20529;-77
2022/07/02 12:49:56;;;;;;;2.92;0.65;;;;;;;;;;4841455;29;20042;-77
2022/07/02 12:52:21;;;;;;;1.67;0.90;;;;;;;;;;4846988;29;20050;-76
2022/07/02 12:54:47;;;;;;;1.27;1.08;;;;;;;;;;4844829;29;20042;-75
2022/07/02 12:57:20;;;;;;;1.02;0.60;;;;;;;;;;4846106;29;20034;-76
2022/07/02 12:59:47;;;;;;;1.08;0.80;;;;;;;;;;4845281;29;20038;-74
2022/07/02 13:02:15;;;;;;;1.10;0.77;;;;;;;;;;4838039;29;20093;-76
2022/07/02 13:04:41;;;;;;;5.10;0.80;;;;;;;;;;4838370;29;20049;-75
2022/07/02 13:07:06;;;;;;;2.83;0.60;;;;;;;;;;4832087;29;20042;-75
2022/07/02 13:09:32;;;;;;;2.88;0.70;;;;;;;;;;4839795;29;20029;-74
2022/07/02 13:11:57;;;;;;;1.98;0.70;;;;;;;;;;4832736;29;20050;-75
2022/07/02 13:14:22;;;;;;;2.47;0.73;;;;;;;;;;4833376;29;20046;-75
2022/07/02 13:16:48;;;;;;;1.70;0.60;;;;;;;;;;4834422;29;20053;-74
2022/07/02 13:19:13;;;;;;;2.08;0.80;;;;;;;;;;4819853;29;20052;-77
2022/07/02 13:21:38;;;;;;;0.65;0.50;;;;;;;;;;4837333;29;20045;-75
2022/07/02 13:24:04;;;;;;;2.38;0.60;;;;;;;;;;4833978;29;20137;-75
2022/07/02 13:26:29;;;;;;;2.20;0.80;;;;;;;;;;4836725;29;20046;-74
2022/07/02 13:28:55;;;;;;;0.85;0.60;;;;;;;;;;4838366;29;20128;-76
2022/07/02 13:31:20;;;;;;;1.45;0.70;;;;;;;;;;4836856;29;20065;-75
2022/07/02 13:33:46;;;;;;;2.50;0.85;;;;;;;;;;4845537;29;20034;-77
2022/07/02 13:36:11;;;;;;;5.35;0.90;;;;;;;;;;4841960;29;20038;-75
2022/07/02 13:38:36;;;;;;;2.17;0.80;;;;;;;;;;4839764;29;20652;-75
2022/07/02 13:41:02;;;;;;;0.88;0.75;;;;;;;;;;4845743;29;20037;-75
2022/07/02 13:43:27;;;;;;;0.80;0.73;;;;;;;;;;4844382;29;20069;-76
2022/07/02 13:45:53;;;;;;;1.25;0.70;;;;;;;;;;4844265;29;20025;-75
2022/07/02 13:48:18;;;;;;;1.45;0.60;;;;;;;;;;4836496;29;20042;-74
2022/07/02 13:50:44;;;;;;;0.73;0.40;;;;;;;;;;4833376;29;20056;-74
2022/07/02 13:53:10;;;;;;;0.88;0.52;;;;;;;;;;4833475;29;20519;-76
2022/07/02 13:55:36;;;;;;;2.10;0.60;;;;;;;;;;4837920;29;20420;-74
2022/07/02 13:58:02;;;;;;;2.90;0.73;;;;;;;;;;4835198;29;20059;-75
2022/07/02 14:00:27;;;;;;;1.33;0.60;;;;;;;;;;4836672;29;20034;-76
2022/07/02 14:02:53;;;;;;;2.55;0.80;;;;;;;;;;4835874;29;20049;-76
2022/07/02 14:05:18;;;;;;;2.53;0.77;;;;;;;;;;4836513;29;20129;-75
2022/07/02 14:07:43;;;;;;;3.25;0.82;;;;;;;;;;4836409;29;20049;-75
2022/07/02 14:10:09;;;;;;;2.10;0.80;;;;;;;;;;4837559;29;20086;-74
2022/07/02 14:12:34;;;;;;;4.40;0.75;;;;;;;;;;4841901;29;20046;-74
2022/07/02 14:14:59;;;;;;;1.13;0.57;;;;;;;;;;4840211;29;20046;-75
2022/07/02 14:17:25;;;;;;;0.85;0.60;;;;;;;;;;4818511;29;20525;-74
2022/07/02 14:19:51;;;;;;;2.25;0.60;;;;;;;;;;4836735;29;20072;-75
2022/07/02 14:22:19;;;;;;;1.55;0.50;;;;;;;;;;4823756;29;20386;-73
2022/07/02 14:24:44;;;;;;;1.63;0.65;;;;;;;;;;4841280;29;20094;-75
2022/07/02 14:27:10;;;;;;;1.15;0.80;;;;;;;;;;4827401;29;20034;-73
2022/07/02 14:29:35;;;;;;;1.30;0.70;;;;;;;;;;4843961;29;20037;-74
2022/07/02 14:32:00;;;;;;;1.10;0.80;;;;;;;;;;4839983;29;20046;-75
2022/07/02 14:34:26;;;;;;;1.73;0.80;;;;;;;;;;4848242;29;20116;-75
2022/07/02 14:36:51;;;;;;;1.05;0.60;;;;;;;;;;4849916;29;20030;-75
2022/07/02 14:39:16;;;;;;;2.15;0.90;;;;;;;;;;4834486;29;20041;-74
2022/07/02 14:41:45;;;;;;;0.80;0.80;;;;;;;;;;4842101;29;20132;-74
2022/07/02 14:44:11;;;;;;;1.42;1.02;;;;;;;;;;4848163;29;20076;-74
2022/07/02 14:46:37;;;;;;;0.90;0.77;;;;;;;;;;4844008;29;20077;-75
2022/07/02 14:49:02;;;;;;;0.70;0.70;;;;;;;;;;4850931;29;20033;-76
2022/07/02 14:51:28;;;;;;;0.75;0.70;;;;;;;;;;4840238;29;20521;-75